e-Mail: Password: Lost your password? Click here. - Register a new user

c h a v e z j u a r e z . c o m

Weather - Tiempo - Wetter - Temps

METAR DATA MMMX (Mexico City)

Mexico City / Licenci, Mexico (MMMX) 19-26N 099-06W
Jun 06, 2020 - 07:45 PM EDT / 2020.06.06 2345 UTC
Wind: from the N (010 degrees) at 13 MPH (11 KT):0
Visibility: 10 mile(s):0
Sky conditions: partly cloudy
Temperature: 80 F (27 C)
Dew Point: 39 F (4 C)
Relative Humidity: 22%
Pressure (altimeter): 30.13 in. Hg (1020 hPa)
Pressure tendency: 0.03 inches (1.0 hPa) lower than three hours ago
ob: MMMX 062345Z 01011KT 10SM SCT030 27/04 A3013 NOSIG RMK SLP015 57010 952 8/200 HZY AC
cycle: 0

Mexico City

St. Prex




Current weather alarms for Switzerland


www.wetteralarm.ch